sensor_id;sensor_type;location;lat;lon;timestamp;P1;durP1;ratioP1;P2;durP2;ratioP2
14377;SDS011;7272;53.668;9.578;2024-01-30T00:00:14;9.80;;;8.50;;
14377;SDS011;7272;53.668;9.578;2024-01-30T00:03:16;10.40;;;9.40;;
14377;SDS011;7272;53.668;9.578;2024-01-30T00:06:18;8.90;;;8.00;;
14377;SDS011;7272;53.668;9.578;2024-01-30T00:09:20;9.30;;;8.37;;
14377;SDS011;7272;53.668;9.578;2024-01-30T00:12:21;9.50;;;8.60;;
14377;SDS011;7272;53.668;9.578;2024-01-30T00:15:23;8.80;;;7.90;;
14377;SDS011;7272;53.668;9.578;2024-01-30T00:18:24;9.77;;;8.77;;
14377;SDS011;7272;53.668;9.578;2024-01-30T00:21:26;9.83;;;8.80;;
14377;SDS011;7272;53.668;9.578;2024-01-30T00:24:27;10.30;;;9.37;;
14377;SDS011;7272;53.668;9.578;2024-01-30T00:27:28;10.20;;;9.23;;
14377;SDS011;7272;53.668;9.578;2024-01-30T00:30:29;10.57;;;9.43;;
14377;SDS011;7272;53.668;9.578;2024-01-30T00:33:30;9.10;;;8.20;;
14377;SDS011;7272;53.668;9.578;2024-01-30T00:36:32;8.83;;;8.03;;
14377;SDS011;7272;53.668;9.578;2024-01-30T00:39:34;9.47;;;8.37;;
14377;SDS011;7272;53.668;9.578;2024-01-30T00:42:35;10.00;;;8.70;;
14377;SDS011;7272;53.668;9.578;2024-01-30T00:45:36;9.23;;;8.30;;
14377;SDS011;7272;53.668;9.578;2024-01-30T00:48:37;9.20;;;8.40;;
14377;SDS011;7272;53.668;9.578;2024-01-30T00:51:39;7.73;;;7.03;;
14377;SDS011;7272;53.668;9.578;2024-01-30T00:54:41;8.43;;;7.57;;
14377;SDS011;7272;53.668;9.578;2024-01-30T00:57:42;11.63;;;10.43;;
14377;SDS011;7272;53.668;9.578;2024-01-30T01:00:43;10.03;;;9.03;;
14377;SDS011;7272;53.668;9.578;2024-01-30T01:03:45;8.97;;;8.23;;
14377;SDS011;7272;53.668;9.578;2024-01-30T01:06:47;9.70;;;8.67;;
14377;SDS011;7272;53.668;9.578;2024-01-30T01:09:48;9.63;;;8.73;;
14377;SDS011;7272;53.668;9.578;2024-01-30T01:12:49;9.27;;;8.37;;
14377;SDS011;7272;53.668;9.578;2024-01-30T01:15:50;8.60;;;7.80;;
14377;SDS011;7272;53.668;9.578;2024-01-30T01:18:51;9.00;;;8.10;;
14377;SDS011;7272;53.668;9.578;2024-01-30T01:21:53;10.00;;;8.43;;
14377;SDS011;7272;53.668;9.578;2024-01-30T01:24:55;9.60;;;8.70;;
14377;SDS011;7272;53.668;9.578;2024-01-30T01:27:56;9.33;;;8.43;;
14377;SDS011;7272;53.668;9.578;2024-01-30T01:30:57;9.50;;;8.50;;
14377;SDS011;7272;53.668;9.578;2024-01-30T01:34:05;8.67;;;7.87;;
14377;SDS011;7272;53.668;9.578;2024-01-30T01:37:07;8.90;;;8.00;;
14377;SDS011;7272;53.668;9.578;2024-01-30T01:40:08;9.17;;;8.37;;
14377;SDS011;7272;53.668;9.578;2024-01-30T01:43:10;9.23;;;8.10;;
14377;SDS011;7272;53.668;9.578;2024-01-30T01:46:11;8.27;;;7.47;;
14377;SDS011;7272;53.668;9.578;2024-01-30T01:49:12;8.70;;;7.93;;
14377;SDS011;7272;53.668;9.578;2024-01-30T01:52:15;9.10;;;8.30;;
14377;SDS011;7272;53.668;9.578;2024-01-30T01:55:18;10.47;;;9.43;;
14377;SDS011;7272;53.668;9.578;2024-01-30T01:58:22;9.93;;;9.03;;
14377;SDS011;7272;53.668;9.578;2024-01-30T02:01:25;9.17;;;8.37;;
14377;SDS011;7272;53.668;9.578;2024-01-30T02:04:27;9.10;;;8.20;;
14377;SDS011;7272;53.668;9.578;2024-01-30T02:07:29;9.70;;;8.73;;
14377;SDS011;7272;53.668;9.578;2024-01-30T02:10:31;9.67;;;8.77;;
14377;SDS011;7272;53.668;9.578;2024-01-30T02:13:32;8.63;;;7.83;;
14377;SDS011;7272;53.668;9.578;2024-01-30T02:16:34;8.27;;;7.37;;
14377;SDS011;7272;53.668;9.578;2024-01-30T02:19:36;9.63;;;8.63;;
14377;SDS011;7272;53.668;9.578;2024-01-30T02:22:38;7.90;;;6.73;;
14377;SDS011;7272;53.668;9.578;2024-01-30T02:25:42;8.60;;;7.80;;
14377;SDS011;7272;53.668;9.578;2024-01-30T02:28:45;8.63;;;7.83;;
14377;SDS011;7272;53.668;9.578;2024-01-30T02:31:46;9.83;;;8.47;;
14377;SDS011;7272;53.668;9.578;2024-01-30T02:34:48;8.00;;;7.30;;
14377;SDS011;7272;53.668;9.578;2024-01-30T02:37:49;8.53;;;7.83;;
14377;SDS011;7272;53.668;9.578;2024-01-30T02:40:51;7.80;;;7.10;;
14377;SDS011;7272;53.668;9.578;2024-01-30T02:43:52;8.03;;;7.23;;
14377;SDS011;7272;53.668;9.578;2024-01-30T02:46:53;8.60;;;7.90;;
14377;SDS011;7272;53.668;9.578;2024-01-30T02:49:55;8.03;;;7.33;;
14377;SDS011;7272;53.668;9.578;2024-01-30T02:52:57;8.10;;;7.30;;
14377;SDS011;7272;53.668;9.578;2024-01-30T02:55:58;8.53;;;7.73;;
14377;SDS011;7272;53.668;9.578;2024-01-30T02:58:59;8.50;;;7.40;;
14377;SDS011;7272;53.668;9.578;2024-01-30T03:02:01;7.77;;;7.17;;
14377;SDS011;7272;53.668;9.578;2024-01-30T03:05:02;7.77;;;7.10;;
14377;SDS011;7272;53.668;9.578;2024-01-30T03:08:05;8.03;;;7.03;;
14377;SDS011;7272;53.668;9.578;2024-01-30T03:11:06;8.93;;;8.03;;
14377;SDS011;7272;53.668;9.578;2024-01-30T03:14:07;8.27;;;7.47;;
14377;SDS011;7272;53.668;9.578;2024-01-30T03:17:11;8.43;;;7.60;;
14377;SDS011;7272;53.668;9.578;2024-01-30T03:20:12;8.17;;;7.37;;
14377;SDS011;7272;53.668;9.578;2024-01-30T03:23:14;9.17;;;8.27;;
14377;SDS011;7272;53.668;9.578;2024-01-30T03:26:15;8.13;;;7.33;;
14377;SDS011;7272;53.668;9.578;2024-01-30T03:29:16;8.10;;;7.37;;
14377;SDS011;7272;53.668;9.578;2024-01-30T03:32:18;8.70;;;7.90;;
14377;SDS011;7272;53.668;9.578;2024-01-30T03:35:19;8.43;;;7.03;;
14377;SDS011;7272;53.668;9.578;2024-01-30T03:38:21;7.73;;;6.93;;
14377;SDS011;7272;53.668;9.578;2024-01-30T03:41:22;8.57;;;7.77;;
14377;SDS011;7272;53.668;9.578;2024-01-30T03:44:23;7.67;;;6.97;;
14377;SDS011;7272;53.668;9.578;2024-01-30T03:47:24;9.23;;;8.43;;
14377;SDS011;7272;53.668;9.578;2024-01-30T03:50:26;9.20;;;8.40;;
14377;SDS011;7272;53.668;9.578;2024-01-30T03:53:29;9.00;;;8.17;;
14377;SDS011;7272;53.668;9.578;2024-01-30T03:56:30;8.60;;;7.70;;
14377;SDS011;7272;53.668;9.578;2024-01-30T03:59:32;8.63;;;7.70;;
14377;SDS011;7272;53.668;9.578;2024-01-30T04:02:33;9.70;;;8.70;;
14377;SDS011;7272;53.668;9.578;2024-01-30T04:05:35;8.87;;;7.83;;
14377;SDS011;7272;53.668;9.578;2024-01-30T04:08:37;8.17;;;7.40;;
14377;SDS011;7272;53.668;9.578;2024-01-30T04:11:38;7.93;;;7.23;;
14377;SDS011;7272;53.668;9.578;2024-01-30T04:14:40;8.00;;;7.30;;
14377;SDS011;7272;53.668;9.578;2024-01-30T04:17:41;7.87;;;7.17;;
14377;SDS011;7272;53.668;9.578;2024-01-30T04:20:42;8.93;;;8.13;;
14377;SDS011;7272;53.668;9.578;2024-01-30T04:23:44;8.70;;;7.83;;
14377;SDS011;7272;53.668;9.578;2024-01-30T04:26:45;8.20;;;7.40;;
14377;SDS011;7272;53.668;9.578;2024-01-30T04:29:46;9.37;;;8.50;;
14377;SDS011;7272;53.668;9.578;2024-01-30T04:32:47;7.70;;;7.00;;
14377;SDS011;7272;53.668;9.578;2024-01-30T04:35:49;9.27;;;8.47;;
14377;SDS011;7272;53.668;9.578;2024-01-30T04:38:51;7.70;;;6.93;;
14377;SDS011;7272;53.668;9.578;2024-01-30T04:41:52;7.80;;;7.20;;
14377;SDS011;7272;53.668;9.578;2024-01-30T04:44:53;9.50;;;8.50;;
14377;SDS011;7272;53.668;9.578;2024-01-30T04:47:54;9.60;;;8.57;;
14377;SDS011;7272;53.668;9.578;2024-01-30T04:50:55;10.10;;;9.10;;
14377;SDS011;7272;53.668;9.578;2024-01-30T04:53:57;8.10;;;7.40;;
14377;SDS011;7272;53.668;9.578;2024-01-30T04:56:59;9.53;;;8.63;;
14377;SDS011;7272;53.668;9.578;2024-01-30T05:00:00;10.47;;;9.57;;
14377;SDS011;7272;53.668;9.578;2024-01-30T05:03:01;9.97;;;8.93;;
14377;SDS011;7272;53.668;9.578;2024-01-30T05:06:03;11.40;;;10.07;;
14377;SDS011;7272;53.668;9.578;2024-01-30T05:09:05;9.97;;;9.07;;
14377;SDS011;7272;53.668;9.578;2024-01-30T05:12:06;9.70;;;8.27;;
14377;SDS011;7272;53.668;9.578;2024-01-30T05:15:08;10.80;;;9.67;;
14377;SDS011;7272;53.668;9.578;2024-01-30T05:18:10;10.73;;;9.73;;
14377;SDS011;7272;53.668;9.578;2024-01-30T05:21:11;9.70;;;8.77;;
14377;SDS011;7272;53.668;9.578;2024-01-30T05:24:13;10.63;;;9.30;;
14377;SDS011;7272;53.668;9.578;2024-01-30T05:27:14;10.20;;;9.10;;
14377;SDS011;7272;53.668;9.578;2024-01-30T05:30:15;10.70;;;9.67;;
14377;SDS011;7272;53.668;9.578;2024-01-30T05:33:17;9.70;;;8.73;;
14377;SDS011;7272;53.668;9.578;2024-01-30T05:36:18;10.60;;;9.63;;
14377;SDS011;7272;53.668;9.578;2024-01-30T05:39:20;9.93;;;8.93;;
14377;SDS011;7272;53.668;9.578;2024-01-30T05:42:21;9.30;;;8.40;;
14377;SDS011;7272;53.668;9.578;2024-01-30T05:45:22;8.47;;;7.77;;
14377;SDS011;7272;53.668;9.578;2024-01-30T05:48:23;9.93;;;8.97;;
14377;SDS011;7272;53.668;9.578;2024-01-30T05:51:24;9.07;;;8.23;;
14377;SDS011;7272;53.668;9.578;2024-01-30T05:54:26;10.00;;;9.00;;
14377;SDS011;7272;53.668;9.578;2024-01-30T05:57:27;10.87;;;9.20;;
14377;SDS011;7272;53.668;9.578;2024-01-30T06:00:29;10.37;;;9.30;;
14377;SDS011;7272;53.668;9.578;2024-01-30T06:03:30;10.93;;;9.93;;
14377;SDS011;7272;53.668;9.578;2024-01-30T06:06:31;10.00;;;9.10;;
14377;SDS011;7272;53.668;9.578;2024-01-30T06:09:33;10.50;;;9.43;;
14377;SDS011;7272;53.668;9.578;2024-01-30T06:12:34;9.43;;;8.53;;
14377;SDS011;7272;53.668;9.578;2024-01-30T06:15:36;8.53;;;7.73;;
14377;SDS011;7272;53.668;9.578;2024-01-30T06:18:37;8.83;;;8.03;;
14377;SDS011;7272;53.668;9.578;2024-01-30T06:21:38;10.10;;;9.10;;
14377;SDS011;7272;53.668;9.578;2024-01-30T06:24:40;9.03;;;8.13;;
14377;SDS011;7272;53.668;9.578;2024-01-30T06:27:41;9.67;;;8.67;;
14377;SDS011;7272;53.668;9.578;2024-01-30T06:30:43;8.37;;;7.63;;
14377;SDS011;7272;53.668;9.578;2024-01-30T06:33:46;9.07;;;8.17;;
14377;SDS011;7272;53.668;9.578;2024-01-30T06:36:47;9.27;;;8.37;;
14377;SDS011;7272;53.668;9.578;2024-01-30T06:39:49;10.07;;;9.17;;
14377;SDS011;7272;53.668;9.578;2024-01-30T06:42:50;9.67;;;8.77;;
14377;SDS011;7272;53.668;9.578;2024-01-30T06:45:51;10.13;;;9.13;;
14377;SDS011;7272;53.668;9.578;2024-01-30T06:48:52;10.70;;;9.70;;
14377;SDS011;7272;53.668;9.578;2024-01-30T06:51:54;9.30;;;8.50;;
14377;SDS011;7272;53.668;9.578;2024-01-30T06:54:55;11.80;;;10.60;;
14377;SDS011;7272;53.668;9.578;2024-01-30T06:57:57;9.70;;;8.70;;
14377;SDS011;7272;53.668;9.578;2024-01-30T07:00:58;8.40;;;7.70;;
14377;SDS011;7272;53.668;9.578;2024-01-30T07:03:59;9.53;;;8.63;;
14377;SDS011;7272;53.668;9.578;2024-01-30T07:07:00;10.20;;;9.20;;
14377;SDS011;7272;53.668;9.578;2024-01-30T07:10:03;11.27;;;10.00;;
14377;SDS011;7272;53.668;9.578;2024-01-30T07:13:05;11.17;;;10.17;;
14377;SDS011;7272;53.668;9.578;2024-01-30T07:16:06;10.73;;;9.73;;
14377;SDS011;7272;53.668;9.578;2024-01-30T07:19:07;12.27;;;10.97;;
14377;SDS011;7272;53.668;9.578;2024-01-30T07:22:09;12.40;;;11.10;;
14377;SDS011;7272;53.668;9.578;2024-01-30T07:25:11;12.70;;;11.47;;
14377;SDS011;7272;53.668;9.578;2024-01-30T07:28:12;11.80;;;10.50;;
14377;SDS011;7272;53.668;9.578;2024-01-30T07:31:14;11.10;;;9.90;;
14377;SDS011;7272;53.668;9.578;2024-01-30T07:34:15;12.13;;;10.93;;
14377;SDS011;7272;53.668;9.578;2024-01-30T07:37:16;11.57;;;10.43;;
14377;SDS011;7272;53.668;9.578;2024-01-30T07:40:18;12.87;;;11.23;;
14377;SDS011;7272;53.668;9.578;2024-01-30T07:43:19;11.43;;;10.33;;
14377;SDS011;7272;53.668;9.578;2024-01-30T07:46:20;12.03;;;10.83;;
14377;SDS011;7272;53.668;9.578;2024-01-30T07:49:22;11.40;;;10.33;;
14377;SDS011;7272;53.668;9.578;2024-01-30T07:52:23;11.73;;;10.70;;
14377;SDS011;7272;53.668;9.578;2024-01-30T07:55:25;12.97;;;11.77;;
14377;SDS011;7272;53.668;9.578;2024-01-30T07:58:28;14.13;;;12.63;;
14377;SDS011;7272;53.668;9.578;2024-01-30T08:01:30;13.43;;;12.03;;
14377;SDS011;7272;53.668;9.578;2024-01-30T08:04:31;12.67;;;11.37;;
14377;SDS011;7272;53.668;9.578;2024-01-30T08:07:32;13.73;;;12.00;;
14377;SDS011;7272;53.668;9.578;2024-01-30T08:10:34;12.90;;;11.60;;
14377;SDS011;7272;53.668;9.578;2024-01-30T08:13:35;13.10;;;11.87;;
14377;SDS011;7272;53.668;9.578;2024-01-30T08:16:36;13.50;;;12.20;;
14377;SDS011;7272;53.668;9.578;2024-01-30T08:19:37;13.63;;;12.37;;
14377;SDS011;7272;53.668;9.578;2024-01-30T08:22:38;12.67;;;11.20;;
14377;SDS011;7272;53.668;9.578;2024-01-30T08:25:40;13.67;;;11.87;;
14377;SDS011;7272;53.668;9.578;2024-01-30T08:28:42;13.57;;;12.23;;
14377;SDS011;7272;53.668;9.578;2024-01-30T08:31:43;13.87;;;12.47;;
14377;SDS011;7272;53.668;9.578;2024-01-30T08:34:44;13.60;;;12.33;;
14377;SDS011;7272;53.668;9.578;2024-01-30T08:37:45;12.80;;;11.60;;
14377;SDS011;7272;53.668;9.578;2024-01-30T08:40:47;13.83;;;12.47;;
14377;SDS011;7272;53.668;9.578;2024-01-30T08:43:48;12.83;;;11.60;;
14377;SDS011;7272;53.668;9.578;2024-01-30T08:46:50;12.07;;;10.80;;
14377;SDS011;7272;53.668;9.578;2024-01-30T08:49:51;13.57;;;12.17;;
14377;SDS011;7272;53.668;9.578;2024-01-30T08:52:52;12.37;;;11.17;;
14377;SDS011;7272;53.668;9.578;2024-01-30T08:55:54;11.23;;;10.13;;
14377;SDS011;7272;53.668;9.578;2024-01-30T08:58:55;11.37;;;10.37;;
14377;SDS011;7272;53.668;9.578;2024-01-30T09:01:56;12.97;;;11.67;;
14377;SDS011;7272;53.668;9.578;2024-01-30T09:04:59;12.47;;;11.27;;
14377;SDS011;7272;53.668;9.578;2024-01-30T09:08:00;12.57;;;11.37;;
14377;SDS011;7272;53.668;9.578;2024-01-30T09:11:08;14.03;;;12.00;;
14377;SDS011;7272;53.668;9.578;2024-01-30T09:14:10;11.50;;;10.40;;
14377;SDS011;7272;53.668;9.578;2024-01-30T09:17:12;12.00;;;10.83;;
14377;SDS011;7272;53.668;9.578;2024-01-30T09:20:13;11.20;;;10.13;;
14377;SDS011;7272;53.668;9.578;2024-01-30T09:23:14;11.43;;;10.33;;
14377;SDS011;7272;53.668;9.578;2024-01-30T09:26:18;12.53;;;10.60;;
14377;SDS011;7272;53.668;9.578;2024-01-30T09:29:19;12.07;;;11.07;;
14377;SDS011;7272;53.668;9.578;2024-01-30T09:32:21;12.07;;;10.93;;
14377;SDS011;7272;53.668;9.578;2024-01-30T09:35:23;11.43;;;10.43;;
14377;SDS011;7272;53.668;9.578;2024-01-30T09:38:24;12.00;;;10.90;;
14377;SDS011;7272;53.668;9.578;2024-01-30T09:41:26;11.97;;;10.50;;
14377;SDS011;7272;53.668;9.578;2024-01-30T09:44:29;12.17;;;10.87;;
14377;SDS011;7272;53.668;9.578;2024-01-30T09:47:31;11.90;;;10.80;;
14377;SDS011;7272;53.668;9.578;2024-01-30T09:50:33;12.80;;;10.20;;
14377;SDS011;7272;53.668;9.578;2024-01-30T09:53:36;11.00;;;9.90;;
14377;SDS011;7272;53.668;9.578;2024-01-30T09:56:40;11.37;;;10.27;;
14377;SDS011;7272;53.668;9.578;2024-01-30T09:59:41;11.33;;;10.23;;
14377;SDS011;7272;53.668;9.578;2024-01-30T10:02:43;10.80;;;9.80;;
14377;SDS011;7272;53.668;9.578;2024-01-30T10:05:46;12.00;;;10.73;;
14377;SDS011;7272;53.668;9.578;2024-01-30T10:08:52;11.63;;;10.53;;
14377;SDS011;7272;53.668;9.578;2024-01-30T10:11:54;11.80;;;10.77;;
14377;SDS011;7272;53.668;9.578;2024-01-30T10:14:56;12.13;;;11.03;;
14377;SDS011;7272;53.668;9.578;2024-01-30T10:17:57;12.00;;;10.67;;
14377;SDS011;7272;53.668;9.578;2024-01-30T10:20:59;10.90;;;9.67;;
14377;SDS011;7272;53.668;9.578;2024-01-30T10:24:00;11.40;;;10.30;;
14377;SDS011;7272;53.668;9.578;2024-01-30T10:27:02;10.83;;;9.83;;
14377;SDS011;7272;53.668;9.578;2024-01-30T10:30:06;10.40;;;9.47;;
14377;SDS011;7272;53.668;9.578;2024-01-30T10:33:08;10.40;;;9.50;;
14377;SDS011;7272;53.668;9.578;2024-01-30T10:36:09;10.50;;;9.40;;
14377;SDS011;7272;53.668;9.578;2024-01-30T10:39:14;10.77;;;9.77;;
14377;SDS011;7272;53.668;9.578;2024-01-30T10:42:19;10.67;;;9.67;;
14377;SDS011;7272;53.668;9.578;2024-01-30T10:45:21;11.30;;;10.20;;
14377;SDS011;7272;53.668;9.578;2024-01-30T10:48:23;11.43;;;10.43;;
14377;SDS011;7272;53.668;9.578;2024-01-30T10:51:30;10.63;;;9.60;;
14377;SDS011;7272;53.668;9.578;2024-01-30T10:54:32;11.70;;;10.53;;
14377;SDS011;7272;53.668;9.578;2024-01-30T10:57:37;10.37;;;9.37;;
14377;SDS011;7272;53.668;9.578;2024-01-30T11:00:38;11.03;;;10.07;;
14377;SDS011;7272;53.668;9.578;2024-01-30T11:03:40;10.23;;;9.33;;
14377;SDS011;7272;53.668;9.578;2024-01-30T11:06:42;11.57;;;10.37;;
14377;SDS011;7272;53.668;9.578;2024-01-30T11:09:49;11.13;;;10.13;;
14377;SDS011;7272;53.668;9.578;2024-01-30T11:12:51;9.23;;;8.40;;
14377;SDS011;7272;53.668;9.578;2024-01-30T11:15:53;9.97;;;9.07;;
14377;SDS011;7272;53.668;9.578;2024-01-30T11:18:54;10.63;;;9.73;;
14377;SDS011;7272;53.668;9.578;2024-01-30T11:22:01;10.47;;;9.33;;
14377;SDS011;7272;53.668;9.578;2024-01-30T11:25:02;9.73;;;8.93;;
14377;SDS011;7272;53.668;9.578;2024-01-30T11:28:04;11.00;;;10.00;;
14377;SDS011;7272;53.668;9.578;2024-01-30T11:31:06;10.37;;;9.30;;
14377;SDS011;7272;53.668;9.578;2024-01-30T11:34:08;9.60;;;8.50;;
14377;SDS011;7272;53.668;9.578;2024-01-30T11:37:10;10.63;;;9.63;;
14377;SDS011;7272;53.668;9.578;2024-01-30T11:40:13;10.83;;;9.83;;
14377;SDS011;7272;53.668;9.578;2024-01-30T11:43:15;9.80;;;8.87;;
14377;SDS011;7272;53.668;9.578;2024-01-30T11:46:19;10.13;;;9.17;;
14377;SDS011;7272;53.668;9.578;2024-01-30T11:49:20;9.40;;;8.60;;
14377;SDS011;7272;53.668;9.578;2024-01-30T11:52:21;10.70;;;9.03;;
14377;SDS011;7272;53.668;9.578;2024-01-30T11:55:23;10.57;;;9.57;;
14377;SDS011;7272;53.668;9.578;2024-01-30T11:58:25;10.17;;;9.37;;
14377;SDS011;7272;53.668;9.578;2024-01-30T12:01:26;9.23;;;8.50;;
14377;SDS011;7272;53.668;9.578;2024-01-30T12:04:28;9.17;;;8.27;;
14377;SDS011;7272;53.668;9.578;2024-01-30T12:07:29;10.53;;;9.63;;
14377;SDS011;7272;53.668;9.578;2024-01-30T12:10:31;10.53;;;9.53;;
14377;SDS011;7272;53.668;9.578;2024-01-30T12:13:33;10.30;;;9.30;;
14377;SDS011;7272;53.668;9.578;2024-01-30T12:16:34;9.73;;;8.53;;
14377;SDS011;7272;53.668;9.578;2024-01-30T12:19:36;10.03;;;9.03;;
14377;SDS011;7272;53.668;9.578;2024-01-30T12:22:37;9.43;;;8.50;;
14377;SDS011;7272;53.668;9.578;2024-01-30T12:25:40;9.33;;;8.43;;
14377;SDS011;7272;53.668;9.578;2024-01-30T12:28:48;8.87;;;8.07;;
14377;SDS011;7272;53.668;9.578;2024-01-30T12:31:52;9.50;;;8.60;;
14377;SDS011;7272;53.668;9.578;2024-01-30T12:34:56;10.73;;;8.60;;
14377;SDS011;7272;53.668;9.578;2024-01-30T12:37:57;9.40;;;8.40;;
14377;SDS011;7272;53.668;9.578;2024-01-30T12:40:59;8.70;;;7.90;;
14377;SDS011;7272;53.668;9.578;2024-01-30T12:44:01;8.43;;;7.73;;
14377;SDS011;7272;53.668;9.578;2024-01-30T12:47:02;8.87;;;8.07;;
14377;SDS011;7272;53.668;9.578;2024-01-30T12:50:04;10.03;;;8.87;;
14377;SDS011;7272;53.668;9.578;2024-01-30T12:53:06;10.00;;;9.00;;
14377;SDS011;7272;53.668;9.578;2024-01-30T12:56:07;9.60;;;8.40;;
14377;SDS011;7272;53.668;9.578;2024-01-30T12:59:09;10.03;;;9.03;;
14377;SDS011;7272;53.668;9.578;2024-01-30T13:02:11;9.93;;;8.87;;
14377;SDS011;7272;53.668;9.578;2024-01-30T13:05:13;9.00;;;8.20;;
14377;SDS011;7272;53.668;9.578;2024-01-30T13:08:14;9.23;;;8.33;;
14377;SDS011;7272;53.668;9.578;2024-01-30T13:11:16;8.97;;;8.17;;
14377;SDS011;7272;53.668;9.578;2024-01-30T13:14:18;9.07;;;8.17;;
14377;SDS011;7272;53.668;9.578;2024-01-30T13:17:20;8.73;;;7.87;;
14377;SDS011;7272;53.668;9.578;2024-01-30T13:20:21;8.60;;;7.80;;
14377;SDS011;7272;53.668;9.578;2024-01-30T13:23:22;9.37;;;8.47;;
14377;SDS011;7272;53.668;9.578;2024-01-30T13:26:23;9.30;;;8.37;;
14377;SDS011;7272;53.668;9.578;2024-01-30T13:29:25;8.60;;;7.73;;
14377;SDS011;7272;53.668;9.578;2024-01-30T13:32:26;10.07;;;8.27;;
14377;SDS011;7272;53.668;9.578;2024-01-30T13:35:28;9.37;;;8.47;;
14377;SDS011;7272;53.668;9.578;2024-01-30T13:38:29;9.30;;;8.13;;
14377;SDS011;7272;53.668;9.578;2024-01-30T13:41:31;9.47;;;8.47;;
14377;SDS011;7272;53.668;9.578;2024-01-30T13:44:34;10.37;;;8.87;;
14377;SDS011;7272;53.668;9.578;2024-01-30T13:47:35;9.70;;;8.70;;
14377;SDS011;7272;53.668;9.578;2024-01-30T13:50:36;9.67;;;8.40;;
14377;SDS011;7272;53.668;9.578;2024-01-30T13:53:38;9.83;;;8.93;;
14377;SDS011;7272;53.668;9.578;2024-01-30T13:56:39;9.77;;;8.87;;
14377;SDS011;7272;53.668;9.578;2024-01-30T13:59:41;9.43;;;8.53;;
14377;SDS011;7272;53.668;9.578;2024-01-30T14:02:42;9.37;;;8.47;;
14377;SDS011;7272;53.668;9.578;2024-01-30T14:05:43;10.87;;;9.87;;
14377;SDS011;7272;53.668;9.578;2024-01-30T14:08:45;9.33;;;8.33;;
14377;SDS011;7272;53.668;9.578;2024-01-30T14:11:46;10.00;;;9.00;;
14377;SDS011;7272;53.668;9.578;2024-01-30T14:14:48;10.73;;;9.63;;
14377;SDS011;7272;53.668;9.578;2024-01-30T14:17:49;9.70;;;8.80;;
14377;SDS011;7272;53.668;9.578;2024-01-30T14:20:50;10.87;;;9.20;;
14377;SDS011;7272;53.668;9.578;2024-01-30T14:23:52;9.70;;;8.80;;
14377;SDS011;7272;53.668;9.578;2024-01-30T14:26:53;9.70;;;8.60;;
14377;SDS011;7272;53.668;9.578;2024-01-30T14:29:55;10.10;;;9.23;;
14377;SDS011;7272;53.668;9.578;2024-01-30T14:32:57;10.10;;;9.10;;
14377;SDS011;7272;53.668;9.578;2024-01-30T14:35:58;11.73;;;9.53;;
14377;SDS011;7272;53.668;9.578;2024-01-30T14:38:59;10.60;;;9.50;;
14377;SDS011;7272;53.668;9.578;2024-01-30T14:42:00;10.83;;;9.73;;
14377;SDS011;7272;53.668;9.578;2024-01-30T14:45:03;9.97;;;8.97;;
14377;SDS011;7272;53.668;9.578;2024-01-30T14:48:06;9.50;;;8.60;;
14377;SDS011;7272;53.668;9.578;2024-01-30T14:51:09;9.97;;;8.97;;
14377;SDS011;7272;53.668;9.578;2024-01-30T14:54:10;11.90;;;9.27;;
14377;SDS011;7272;53.668;9.578;2024-01-30T14:57:12;9.70;;;8.70;;
14377;SDS011;7272;53.668;9.578;2024-01-30T15:00:15;11.23;;;8.80;;
14377;SDS011;7272;53.668;9.578;2024-01-30T15:03:17;10.03;;;9.03;;
14377;SDS011;7272;53.668;9.578;2024-01-30T15:06:19;10.93;;;9.87;;
14377;SDS011;7272;53.668;9.578;2024-01-30T15:09:22;9.77;;;8.87;;
14377;SDS011;7272;53.668;9.578;2024-01-30T15:12:26;10.83;;;8.57;;
14377;SDS011;7272;53.668;9.578;2024-01-30T15:15:28;10.50;;;9.40;;
14377;SDS011;7272;53.668;9.578;2024-01-30T15:18:31;9.53;;;8.53;;
14377;SDS011;7272;53.668;9.578;2024-01-30T15:21:32;10.43;;;9.43;;
14377;SDS011;7272;53.668;9.578;2024-01-30T15:24:33;9.90;;;9.00;;
14377;SDS011;7272;53.668;9.578;2024-01-30T15:27:34;10.73;;;9.17;;
14377;SDS011;7272;53.668;9.578;2024-01-30T15:30:36;10.63;;;8.63;;
14377;SDS011;7272;53.668;9.578;2024-01-30T15:33:37;9.50;;;8.60;;
14377;SDS011;7272;53.668;9.578;2024-01-30T15:36:39;10.23;;;9.27;;
14377;SDS011;7272;53.668;9.578;2024-01-30T15:39:40;10.27;;;9.13;;
14377;SDS011;7272;53.668;9.578;2024-01-30T15:42:41;10.53;;;9.53;;
14377;SDS011;7272;53.668;9.578;2024-01-30T15:45:44;10.33;;;9.17;;
14377;SDS011;7272;53.668;9.578;2024-01-30T15:48:45;11.00;;;9.70;;
14377;SDS011;7272;53.668;9.578;2024-01-30T15:51:47;10.60;;;9.60;;
14377;SDS011;7272;53.668;9.578;2024-01-30T15:54:48;10.00;;;9.03;;
14377;SDS011;7272;53.668;9.578;2024-01-30T15:57:50;10.83;;;9.73;;
14377;SDS011;7272;53.668;9.578;2024-01-30T16:00:52;10.10;;;9.00;;
14377;SDS011;7272;53.668;9.578;2024-01-30T16:03:53;10.63;;;9.47;;
14377;SDS011;7272;53.668;9.578;2024-01-30T16:06:54;10.43;;;9.07;;
14377;SDS011;7272;53.668;9.578;2024-01-30T16:10:14;10.47;;;9.40;;
14377;SDS011;7272;53.668;9.578;2024-01-30T16:13:34;11.83;;;10.63;;
14377;SDS011;7272;53.668;9.578;2024-01-30T16:16:38;9.23;;;8.43;;
14377;SDS011;7272;53.668;9.578;2024-01-30T16:19:39;11.13;;;10.13;;
14377;SDS011;7272;53.668;9.578;2024-01-30T16:23:00;10.40;;;9.40;;
14377;SDS011;7272;53.668;9.578;2024-01-30T16:26:01;10.53;;;9.43;;
14377;SDS011;7272;53.668;9.578;2024-01-30T16:29:02;10.67;;;9.77;;
14377;SDS011;7272;53.668;9.578;2024-01-30T16:32:23;10.73;;;9.57;;
14377;SDS011;7272;53.668;9.578;2024-01-30T16:35:24;13.07;;;11.00;;
14377;SDS011;7272;53.668;9.578;2024-01-30T16:38:25;11.93;;;10.73;;
14377;SDS011;7272;53.668;9.578;2024-01-30T16:41:46;11.47;;;10.37;;
14377;SDS011;7272;53.668;9.578;2024-01-30T16:45:06;11.93;;;10.20;;
14377;SDS011;7272;53.668;9.578;2024-01-30T16:48:08;10.30;;;9.27;;
14377;SDS011;7272;53.668;9.578;2024-01-30T16:51:29;10.07;;;9.10;;
14377;SDS011;7272;53.668;9.578;2024-01-30T16:54:30;9.97;;;9.00;;
14377;SDS011;7272;53.668;9.578;2024-01-30T16:57:31;9.60;;;8.70;;
14377;SDS011;7272;53.668;9.578;2024-01-30T17:00:32;9.83;;;8.80;;
14377;SDS011;7272;53.668;9.578;2024-01-30T17:03:53;10.13;;;9.23;;
14377;SDS011;7272;53.668;9.578;2024-01-30T17:07:13;9.93;;;8.90;;
14377;SDS011;7272;53.668;9.578;2024-01-30T17:10:15;9.57;;;8.33;;
14377;SDS011;7272;53.668;9.578;2024-01-30T17:13:37;9.20;;;8.30;;
14377;SDS011;7272;53.668;9.578;2024-01-30T17:16:58;8.87;;;6.83;;
14377;SDS011;7272;53.668;9.578;2024-01-30T17:20:00;7.90;;;7.20;;
14377;SDS011;7272;53.668;9.578;2024-01-30T17:23:20;9.43;;;7.80;;
14377;SDS011;7272;53.668;9.578;2024-01-30T17:26:21;8.10;;;7.40;;
14377;SDS011;7272;53.668;9.578;2024-01-30T17:29:23;8.03;;;7.33;;
14377;SDS011;7272;53.668;9.578;2024-01-30T17:32:42;9.00;;;7.53;;
14377;SDS011;7272;53.668;9.578;2024-01-30T17:35:44;10.23;;;8.37;;
14377;SDS011;7272;53.668;9.578;2024-01-30T17:38:45;9.83;;;8.80;;
14377;SDS011;7272;53.668;9.578;2024-01-30T17:42:06;9.70;;;8.10;;
14377;SDS011;7272;53.668;9.578;2024-01-30T17:45:26;8.33;;;7.53;;
14377;SDS011;7272;53.668;9.578;2024-01-30T17:48:28;8.37;;;7.57;;
14377;SDS011;7272;53.668;9.578;2024-01-30T17:51:29;7.63;;;6.43;;
14377;SDS011;7272;53.668;9.578;2024-01-30T17:54:49;6.50;;;5.37;;
14377;SDS011;7272;53.668;9.578;2024-01-30T17:58:09;6.07;;;5.30;;
14377;SDS011;7272;53.668;9.578;2024-01-30T18:01:29;5.87;;;4.70;;
14377;SDS011;7272;53.668;9.578;2024-01-30T18:04:31;4.97;;;3.97;;
14377;SDS011;7272;53.668;9.578;2024-01-30T18:07:33;3.57;;;3.27;;
14377;SDS011;7272;53.668;9.578;2024-01-30T18:10:34;2.90;;;2.70;;
14377;SDS011;7272;53.668;9.578;2024-01-30T18:13:36;3.10;;;2.80;;
14377;SDS011;7272;53.668;9.578;2024-01-30T18:16:37;2.53;;;2.10;;
14377;SDS011;7272;53.668;9.578;2024-01-30T18:19:39;2.40;;;2.20;;
14377;SDS011;7272;53.668;9.578;2024-01-30T18:22:41;2.97;;;1.83;;
14377;SDS011;7272;53.668;9.578;2024-01-30T18:25:44;1.87;;;1.63;;